createdAt,value
2023-03-15T00:01:18.617Z,47.20
2023-03-15T00:03:49.769Z,47.20
2023-03-15T00:06:18.900Z,47.10
2023-03-15T00:08:48.104Z,47.20
2023-03-15T00:11:17.948Z,47.20
2023-03-15T00:13:47.563Z,47.20
2023-03-15T00:16:18.701Z,47.20
2023-03-15T00:18:48.906Z,47.10
2023-03-15T00:21:17.579Z,47.00
2023-03-15T00:23:46.277Z,47.00
2023-03-15T00:26:15.592Z,47.10
2023-03-15T00:28:44.412Z,47.00
2023-03-15T00:31:17.139Z,47.00
2023-03-15T00:33:48.997Z,46.90
2023-03-15T00:36:18.224Z,47.40
2023-03-15T00:38:46.853Z,47.00
2023-03-15T00:41:17.891Z,46.90
2023-03-15T00:43:47.025Z,46.90
2023-03-15T00:46:19.272Z,46.90
2023-03-15T00:48:51.571Z,46.80
2023-03-15T00:51:23.802Z,46.70
2023-03-15T00:53:54.400Z,46.70
2023-03-15T00:56:26.708Z,46.70
2023-03-15T00:58:55.509Z,46.70
2023-03-15T01:01:26.758Z,46.80
2023-03-15T01:03:57.361Z,46.70
2023-03-15T01:06:30.034Z,46.60
2023-03-15T01:09:01.820Z,46.70
2023-03-15T01:11:31.218Z,46.70
2023-03-15T01:14:01.120Z,46.70
2023-03-15T01:16:29.958Z,46.80
2023-03-15T01:19:00.115Z,46.80
2023-03-15T01:21:28.990Z,46.70
2023-03-15T01:23:57.651Z,46.80
2023-03-15T01:26:26.401Z,46.80
2023-03-15T01:28:55.288Z,46.80
2023-03-15T01:31:26.659Z,46.70
2023-03-15T01:33:55.765Z,46.60
2023-03-15T01:36:26.453Z,46.70
2023-03-15T01:38:55.637Z,46.60
2023-03-15T01:41:36.724Z,46.60
2023-03-15T01:44:05.624Z,46.50
2023-03-15T01:46:35.435Z,46.60
2023-03-15T01:49:23.916Z,46.40
2023-03-15T01:51:58.685Z,46.30
2023-03-15T01:54:33.787Z,46.40
2023-03-15T01:57:08.673Z,46.50
2023-03-15T01:59:43.237Z,46.40
2023-03-15T02:02:14.694Z,46.40
2023-03-15T02:04:48.982Z,46.50
2023-03-15T02:07:25.831Z,46.30
2023-03-15T02:10:02.697Z,46.30
2023-03-15T02:12:38.517Z,46.30
2023-03-15T02:15:09.490Z,46.30
2023-03-15T02:17:41.398Z,46.30
2023-03-15T02:20:36.671Z,46.30
2023-03-15T02:23:25.682Z,46.00
2023-03-15T02:26:05.541Z,46.20
2023-03-15T02:28:36.771Z,46.10
2023-03-15T02:31:05.956Z,46.20
2023-03-15T02:33:41.892Z,46.20
2023-03-15T02:36:17.074Z,46.10
2023-03-15T02:38:45.730Z,46.20
2023-03-15T02:41:17.942Z,46.20
2023-03-15T02:43:51.327Z,46.20
2023-03-15T02:46:20.218Z,46.00
2023-03-15T02:48:51.685Z,46.10
2023-03-15T02:51:24.257Z,46.00
2023-03-15T02:53:53.383Z,46.00
2023-03-15T02:56:22.099Z,46.00
2023-03-15T02:58:52.268Z,46.00
2023-03-15T03:01:21.032Z,45.90
2023-03-15T03:03:50.019Z,45.90
2023-03-15T03:06:19.270Z,45.90
2023-03-15T03:08:49.214Z,45.90
2023-03-15T03:11:21.282Z,45.90
2023-03-15T03:13:51.379Z,45.80
2023-03-15T03:16:23.235Z,45.80
2023-03-15T03:18:52.462Z,45.80
2023-03-15T03:21:21.507Z,45.80
2023-03-15T03:23:52.067Z,45.80
2023-03-15T03:26:21.064Z,45.80
2023-03-15T03:28:53.928Z,45.70
2023-03-15T03:31:26.585Z,45.60
2023-03-15T03:33:57.758Z,45.60
2023-03-15T03:36:27.566Z,45.70
2023-03-15T03:38:57.168Z,45.60
2023-03-15T03:41:26.431Z,45.60
2023-03-15T03:43:56.608Z,45.70
2023-03-15T03:46:26.128Z,45.60
2023-03-15T03:48:54.957Z,45.70
2023-03-15T03:51:24.086Z,45.60
2023-03-15T03:53:53.058Z,45.60
2023-03-15T03:56:21.756Z,45.60
2023-03-15T03:58:51.092Z,45.60
2023-03-15T04:01:26.098Z,45.60
2023-03-15T04:03:56.742Z,45.60
2023-03-15T04:06:26.583Z,45.60
2023-03-15T04:08:55.347Z,45.60
2023-03-15T04:11:30.957Z,45.60
2023-03-15T04:14:03.178Z,45.60
2023-03-15T04:16:33.939Z,45.60
2023-03-15T04:19:09.348Z,45.50
2023-03-15T04:21:38.592Z,45.60
2023-03-15T04:24:21.481Z,45.60
2023-03-15T04:27:14.797Z,45.60
2023-03-15T04:30:05.384Z,45.60
2023-03-15T04:32:48.443Z,45.60
2023-03-15T04:35:42.601Z,45.50
2023-03-15T04:38:32.422Z,45.40
2023-03-15T04:41:35.608Z,45.50
2023-03-15T04:44:18.506Z,45.60
2023-03-15T04:46:58.255Z,45.60
2023-03-15T04:49:38.663Z,45.60
2023-03-15T04:52:30.553Z,45.50
2023-03-15T04:55:28.284Z,45.60
2023-03-15T04:58:08.335Z,46.20
2023-03-15T05:00:42.818Z,45.50
2023-03-15T05:03:11.434Z,45.50
2023-03-15T05:06:19.932Z,45.50
2023-03-15T05:09:06.638Z,45.50
2023-03-15T05:11:53.944Z,45.60
2023-03-15T05:14:37.888Z,45.60
2023-03-15T05:17:30.592Z,45.60
2023-03-15T05:20:02.333Z,45.60
2023-03-15T05:22:59.010Z,45.50
2023-03-15T05:25:42.326Z,45.60
2023-03-15T05:28:40.014Z,45.60
2023-03-15T05:31:17.562Z,45.60
2023-03-15T05:34:12.812Z,45.70
2023-03-15T05:37:01.844Z,46.30
2023-03-15T05:39:48.604Z,45.70
2023-03-15T05:42:49.393Z,45.60
2023-03-15T05:45:38.680Z,46.40
2023-03-15T05:48:23.732Z,46.40
2023-03-15T05:51:15.402Z,45.80
2023-03-15T05:54:10.311Z,45.80
2023-03-15T05:57:00.489Z,45.80
2023-03-15T05:59:55.017Z,45.70
2023-03-15T06:02:47.927Z,45.70
2023-03-15T06:05:40.500Z,45.70
2023-03-15T06:08:14.503Z,45.80
2023-03-15T06:10:46.806Z,45.80
2023-03-15T06:13:18.306Z,45.80
2023-03-15T06:15:48.814Z,45.90
2023-03-15T06:18:19.661Z,46.00
2023-03-15T06:20:50.689Z,46.10
2023-03-15T06:23:20.878Z,46.10
2023-03-15T06:25:49.645Z,46.20
2023-03-15T06:28:20.750Z,46.20
2023-03-15T06:30:55.697Z,46.30
2023-03-15T06:33:30.200Z,46.30
2023-03-15T06:35:59.017Z,46.30
2023-03-15T06:38:30.135Z,46.20
2023-03-15T06:40:59.467Z,46.10
2023-03-15T06:43:30.627Z,46.10
2023-03-15T06:46:00.190Z,46.00
2023-03-15T06:48:29.956Z,46.10
2023-03-15T06:50:59.448Z,46.70
2023-03-15T06:53:28.120Z,46.10
2023-03-15T06:55:56.752Z,46.10
2023-03-15T06:58:25.283Z,46.00
2023-03-15T07:00:55.328Z,45.90
2023-03-15T07:03:23.974Z,45.80
2023-03-15T07:05:54.484Z,45.80
2023-03-15T07:08:24.811Z,45.80
2023-03-15T07:10:53.800Z,45.90
2023-03-15T07:13:22.432Z,45.90
2023-03-15T07:15:56.346Z,46.00
2023-03-15T07:18:25.001Z,45.90
2023-03-15T07:21:00.439Z,46.00
2023-03-15T07:23:29.717Z,46.00
2023-03-15T07:25:58.823Z,46.00
2023-03-15T07:28:28.785Z,46.10
2023-03-15T07:31:01.829Z,46.00
2023-03-15T07:33:33.455Z,45.90
2023-03-15T07:36:04.300Z,46.00
2023-03-15T07:38:33.669Z,46.00
2023-03-15T07:41:04.105Z,46.00
2023-03-15T07:43:33.529Z,45.90
2023-03-15T07:46:15.725Z,46.60
2023-03-15T07:48:44.446Z,46.00
2023-03-15T07:51:13.156Z,46.10
2023-03-15T07:53:41.835Z,46.10
2023-03-15T07:56:10.517Z,46.00
2023-03-15T07:58:39.099Z,46.10
2023-03-15T08:01:07.834Z,46.10
2023-03-15T08:03:37.831Z,46.10
2023-03-15T08:06:07.152Z,46.20
2023-03-15T08:08:35.820Z,46.20
2023-03-15T08:11:06.957Z,46.10
2023-03-15T08:13:35.862Z,46.20
2023-03-15T08:16:04.649Z,46.30
2023-03-15T08:18:33.372Z,46.30
2023-03-15T08:21:07.158Z,46.20
2023-03-15T08:23:38.682Z,46.40
2023-03-15T08:26:07.857Z,46.40
2023-03-15T08:28:37.092Z,46.40
2023-03-15T08:31:08.898Z,46.40
2023-03-15T08:33:40.238Z,46.40
2023-03-15T08:36:11.360Z,46.50
2023-03-15T08:38:39.953Z,46.50
2023-03-15T08:41:08.622Z,46.60
2023-03-15T08:43:37.293Z,46.50
2023-03-15T08:46:06.474Z,46.60
2023-03-15T08:48:35.098Z,46.60
2023-03-15T08:51:05.217Z,46.60
2023-03-15T08:53:35.565Z,46.60
2023-03-15T08:56:04.859Z,46.60
2023-03-15T08:58:34.559Z,46.70
2023-03-15T09:01:04.960Z,46.70
2023-03-15T09:03:34.388Z,46.70
2023-03-15T09:06:03.082Z,46.70
2023-03-15T09:08:33.293Z,46.70
2023-03-15T09:11:03.942Z,46.80
2023-03-15T09:13:32.697Z,46.80
2023-03-15T09:16:01.288Z,46.80
2023-03-15T09:18:29.950Z,46.80
2023-03-15T09:20:58.631Z,46.90
2023-03-15T09:23:27.356Z,46.90
2023-03-15T09:25:55.994Z,46.80
2023-03-15T09:28:26.653Z,46.90
2023-03-15T09:30:55.661Z,47.00
2023-03-15T09:33:24.270Z,46.90
2023-03-15T09:35:54.051Z,47.00
2023-03-15T09:38:24.171Z,47.00
2023-03-15T09:40:57.933Z,47.10
2023-03-15T09:44:13.232Z,47.00
2023-03-15T09:46:53.884Z,47.10
2023-03-15T09:49:35.253Z,47.10
2023-03-15T09:52:13.792Z,47.10
2023-03-15T09:54:47.489Z,47.70
2023-03-15T09:57:22.605Z,47.00
2023-03-15T09:59:55.397Z,47.10
2023-03-15T10:02:28.520Z,47.20
2023-03-15T10:05:02.346Z,47.20
2023-03-15T10:07:32.185Z,47.20
2023-03-15T10:10:01.558Z,47.20
2023-03-15T10:12:32.563Z,47.20
2023-03-15T10:15:27.685Z,47.20
2023-03-15T10:18:28.003Z,47.30
2023-03-15T10:21:07.664Z,47.20
2023-03-15T10:23:45.286Z,47.20
2023-03-15T10:26:20.384Z,47.30
2023-03-15T10:28:50.413Z,47.30
2023-03-15T10:31:41.108Z,47.30
2023-03-15T10:34:14.109Z,47.30
2023-03-15T10:36:49.394Z,47.30
2023-03-15T10:39:19.376Z,47.40
2023-03-15T10:41:50.016Z,47.40
2023-03-15T10:44:22.240Z,47.50
2023-03-15T10:47:21.860Z,47.50
2023-03-15T10:49:53.234Z,47.50
2023-03-15T10:52:36.700Z,47.50
2023-03-15T10:55:13.183Z,47.50
2023-03-15T10:57:53.110Z,47.50
2023-03-15T11:00:31.908Z,47.50
2023-03-15T11:03:08.156Z,47.70
2023-03-15T11:05:43.258Z,47.70
2023-03-15T11:08:15.732Z,47.80
2023-03-15T11:10:45.960Z,47.80
2023-03-15T11:13:22.032Z,47.80
2023-03-15T11:16:04.462Z,47.90
2023-03-15T11:18:39.290Z,48.10
2023-03-15T11:21:14.182Z,48.10
2023-03-15T11:23:47.526Z,48.10
2023-03-15T11:26:31.590Z,48.80
2023-03-15T11:29:06.091Z,48.20
2023-03-15T11:31:35.592Z,48.30
2023-03-15T11:34:10.885Z,48.30
2023-03-15T11:36:46.233Z,48.40
2023-03-15T11:39:23.551Z,48.40
2023-03-15T11:41:58.100Z,48.40
2023-03-15T11:44:35.135Z,48.40
2023-03-15T11:47:12.371Z,48.40
2023-03-15T11:49:53.841Z,48.40
2023-03-15T11:52:26.225Z,48.70
2023-03-15T11:54:59.101Z,48.70
2023-03-15T11:57:45.807Z,48.90
2023-03-15T12:00:51.858Z,49.10
2023-03-15T12:03:44.366Z,49.30
2023-03-15T12:06:37.928Z,49.20
2023-03-15T12:09:47.306Z,49.50
2023-03-15T12:12:46.940Z,49.30
2023-03-15T12:15:46.301Z,49.40
2023-03-15T12:18:34.785Z,49.20
2023-03-15T12:21:15.660Z,49.00
2023-03-15T12:23:50.139Z,49.00
2023-03-15T12:26:43.194Z,48.80
2023-03-15T12:29:20.021Z,48.90
2023-03-15T12:31:59.946Z,48.80
2023-03-15T12:34:42.846Z,49.00
2023-03-15T12:37:18.201Z,48.90
2023-03-15T12:39:51.743Z,48.90
2023-03-15T12:43:01.924Z,49.00
2023-03-15T12:45:46.897Z,49.30
2023-03-15T12:48:27.914Z,49.20
2023-03-15T12:51:16.455Z,49.30
2023-03-15T12:53:52.220Z,49.50
2023-03-15T12:56:47.624Z,49.50
2023-03-15T12:59:32.989Z,49.60
2023-03-15T13:02:04.466Z,49.50
2023-03-15T13:04:33.277Z,49.20
2023-03-15T13:07:25.833Z,49.10
2023-03-15T13:10:38.131Z,49.10
2023-03-15T13:13:19.476Z,48.90
2023-03-15T13:16:06.139Z,48.50
2023-03-15T13:18:45.904Z,48.30
2023-03-15T13:21:21.691Z,48.20
2023-03-15T13:23:53.717Z,48.20
2023-03-15T13:26:41.314Z,48.00
2023-03-15T13:29:17.658Z,48.00
2023-03-15T13:31:47.419Z,47.80
2023-03-15T13:34:22.011Z,47.70
2023-03-15T13:36:56.796Z,47.80
2023-03-15T13:39:28.092Z,47.90
2023-03-15T13:42:03.706Z,48.10
2023-03-15T13:44:34.149Z,48.30
2023-03-15T13:47:02.841Z,48.40
2023-03-15T13:49:35.868Z,48.40
2023-03-15T13:52:12.329Z,48.70
2023-03-15T13:54:42.394Z,48.60
2023-03-15T13:57:16.312Z,48.80
2023-03-15T13:59:49.138Z,49.10
2023-03-15T14:02:21.662Z,49.00
2023-03-15T14:04:57.885Z,49.00
2023-03-15T14:07:35.383Z,49.10
2023-03-15T14:10:29.405Z,49.10
2023-03-15T14:13:01.033Z,49.20
2023-03-15T14:15:39.389Z,49.00
2023-03-15T14:18:20.576Z,49.20
2023-03-15T14:20:58.253Z,49.10
2023-03-15T14:23:28.358Z,49.00
2023-03-15T14:26:04.995Z,48.90
2023-03-15T14:28:35.349Z,48.90
2023-03-15T14:31:04.755Z,49.00
2023-03-15T14:33:39.002Z,49.00
2023-03-15T14:36:25.546Z,49.10
2023-03-15T14:38:55.964Z,49.20
2023-03-15T14:41:33.145Z,49.00
2023-03-15T14:44:04.101Z,49.10
2023-03-15T14:46:33.513Z,49.10
2023-03-15T14:49:02.730Z,49.10
2023-03-15T14:51:33.043Z,49.10
2023-03-15T14:54:02.422Z,49.10
2023-03-15T14:56:31.133Z,49.10
2023-03-15T14:59:01.757Z,49.10
2023-03-15T15:01:33.243Z,49.00
2023-03-15T15:04:04.402Z,49.00
2023-03-15T15:06:33.612Z,49.10
2023-03-15T15:09:03.785Z,49.00
2023-03-15T15:11:32.490Z,49.20
2023-03-15T15:14:01.224Z,49.20
2023-03-15T15:16:30.097Z,49.40
2023-03-15T15:19:00.682Z,49.60
2023-03-15T15:21:33.999Z,49.80
2023-03-15T15:24:04.427Z,49.80
2023-03-15T15:26:34.518Z,49.70
2023-03-15T15:29:03.301Z,49.70
2023-03-15T15:31:34.420Z,49.60
2023-03-15T15:34:05.336Z,49.70
2023-03-15T15:36:36.674Z,49.80
2023-03-15T15:39:08.259Z,49.80
2023-03-15T15:41:36.880Z,49.70
2023-03-15T15:44:05.684Z,49.60
2023-03-15T15:46:34.265Z,49.60
2023-03-15T15:49:04.621Z,49.60
2023-03-15T15:51:38.065Z,49.60
2023-03-15T15:54:07.765Z,49.50
2023-03-15T15:56:40.075Z,49.40
2023-03-15T15:59:15.014Z,49.40
2023-03-15T16:01:58.807Z,49.30
2023-03-15T16:04:29.939Z,49.30
2023-03-15T16:07:01.617Z,49.30
2023-03-15T16:09:33.324Z,49.30
2023-03-15T16:12:01.989Z,49.20
2023-03-15T16:14:30.691Z,49.10
2023-03-15T16:16:59.307Z,49.10
2023-03-15T16:19:29.282Z,49.10
2023-03-15T16:21:57.949Z,49.20
2023-03-15T16:24:30.172Z,49.20
2023-03-15T16:27:02.562Z,49.10
2023-03-15T16:29:38.175Z,49.10
2023-03-15T16:32:17.935Z,49.20
2023-03-15T16:34:53.405Z,49.10
2023-03-15T16:37:26.583Z,49.10
2023-03-15T16:39:56.821Z,49.20
2023-03-15T16:42:26.027Z,49.20
2023-03-15T16:44:54.849Z,49.10
2023-03-15T16:47:23.514Z,49.10
2023-03-15T16:49:53.545Z,49.10
2023-03-15T16:52:22.229Z,49.10
2023-03-15T16:54:53.565Z,49.00
2023-03-15T16:57:24.199Z,49.00
2023-03-15T16:59:53.000Z,49.00
2023-03-15T17:02:24.111Z,49.10
2023-03-15T17:04:54.224Z,49.10
2023-03-15T17:07:28.286Z,49.20
2023-03-15T17:09:57.193Z,49.20
2023-03-15T17:12:28.321Z,49.10
2023-03-15T17:14:59.311Z,49.20
2023-03-15T17:17:30.559Z,49.20
2023-03-15T17:20:01.569Z,49.20
2023-03-15T17:22:30.834Z,49.20
2023-03-15T17:25:00.150Z,49.20
2023-03-15T17:27:35.956Z,49.10
2023-03-15T17:30:15.580Z,49.20
2023-03-15T17:32:44.685Z,49.10
2023-03-15T17:35:15.934Z,49.10
2023-03-15T17:37:45.700Z,49.10
2023-03-15T17:40:22.879Z,49.00
2023-03-15T17:42:52.516Z,49.10
2023-03-15T17:45:23.391Z,49.00
2023-03-15T17:47:54.045Z,49.00
2023-03-15T17:50:28.484Z,49.00
2023-03-15T17:52:59.366Z,49.00
2023-03-15T17:55:29.931Z,49.00
2023-03-15T17:57:58.755Z,48.90
2023-03-15T18:00:27.736Z,48.90
2023-03-15T18:02:56.863Z,48.90
2023-03-15T18:05:29.597Z,48.90
2023-03-15T18:08:00.153Z,48.90
2023-03-15T18:10:35.234Z,48.80
2023-03-15T18:13:05.049Z,48.80
2023-03-15T18:15:34.080Z,48.70
2023-03-15T18:18:05.041Z,48.70
2023-03-15T18:20:36.517Z,48.70
2023-03-15T18:23:06.030Z,48.60
2023-03-15T18:25:36.596Z,48.60
2023-03-15T18:28:05.329Z,48.50
2023-03-15T18:30:35.122Z,48.50
2023-03-15T18:33:05.798Z,48.40
2023-03-15T18:35:37.734Z,48.40
2023-03-15T18:38:06.740Z,48.40
2023-03-15T18:40:36.550Z,48.40
2023-03-15T18:43:05.634Z,48.40
2023-03-15T18:45:36.952Z,48.40
2023-03-15T18:48:06.330Z,48.30
2023-03-15T18:50:36.948Z,48.40
2023-03-15T18:53:06.454Z,48.20
2023-03-15T18:55:35.919Z,48.20
2023-03-15T18:58:09.002Z,48.20
2023-03-15T19:00:37.791Z,48.20
2023-03-15T19:03:07.427Z,48.20
2023-03-15T19:05:39.178Z,48.10
2023-03-15T19:08:08.146Z,48.10
2023-03-15T19:10:36.935Z,48.10
2023-03-15T19:13:05.729Z,48.10
2023-03-15T19:15:34.426Z,48.10
2023-03-15T19:18:03.401Z,48.00
2023-03-15T19:20:32.107Z,48.00
2023-03-15T19:23:02.127Z,48.00
2023-03-15T19:25:31.040Z,47.90
2023-03-15T19:27:59.673Z,47.90
2023-03-15T19:30:28.274Z,47.90
2023-03-15T19:32:57.158Z,47.80
2023-03-15T19:35:26.951Z,47.80
2023-03-15T19:37:56.607Z,47.80
2023-03-15T19:40:26.883Z,47.70
2023-03-15T19:42:55.546Z,47.60
2023-03-15T19:45:26.582Z,47.70
2023-03-15T19:47:55.153Z,47.60
2023-03-15T19:50:23.807Z,47.60
2023-03-15T19:52:52.456Z,47.60
2023-03-15T19:55:22.124Z,47.70
2023-03-15T19:57:52.187Z,47.70
2023-03-15T20:00:23.493Z,47.60
2023-03-15T20:02:52.481Z,47.60
2023-03-15T20:05:23.137Z,47.60
2023-03-15T20:07:51.809Z,47.50
2023-03-15T20:10:21.900Z,47.50
2023-03-15T20:12:52.233Z,47.40
2023-03-15T20:15:21.341Z,47.40
2023-03-15T20:17:49.967Z,47.30
2023-03-15T20:20:19.494Z,47.40
2023-03-15T20:22:48.421Z,47.30
2023-03-15T20:25:19.554Z,47.30
2023-03-15T20:27:48.405Z,47.30
2023-03-15T20:30:21.412Z,47.20
2023-03-15T20:32:50.240Z,47.10
2023-03-15T20:35:19.106Z,47.20
2023-03-15T20:37:47.816Z,47.10
2023-03-15T20:40:18.409Z,47.20
2023-03-15T20:42:47.202Z,47.20
2023-03-15T20:45:16.283Z,47.10
2023-03-15T20:47:46.576Z,47.20
2023-03-15T20:50:15.217Z,47.10
2023-03-15T20:52:43.919Z,47.10
2023-03-15T20:55:13.708Z,47.10
2023-03-15T20:57:43.089Z,47.00
2023-03-15T21:00:18.208Z,47.00
2023-03-15T21:02:49.192Z,47.00
2023-03-15T21:05:18.877Z,47.10
2023-03-15T21:07:47.809Z,47.10
2023-03-15T21:10:16.897Z,47.10
2023-03-15T21:12:45.939Z,47.20
2023-03-15T21:15:17.688Z,47.20
2023-03-15T21:17:49.464Z,47.20
2023-03-15T21:20:19.333Z,47.20
2023-03-15T21:22:48.020Z,47.20
2023-03-15T21:25:21.648Z,47.20
2023-03-15T21:27:50.326Z,47.10
2023-03-15T21:30:19.605Z,47.20
2023-03-15T21:32:49.677Z,47.10
2023-03-15T21:35:22.110Z,47.10
2023-03-15T21:37:50.824Z,47.10
2023-03-15T21:40:19.724Z,47.10
2023-03-15T21:42:48.639Z,47.10
2023-03-15T21:45:17.446Z,47.10
2023-03-15T21:47:47.006Z,46.90
2023-03-15T21:50:17.549Z,46.90
2023-03-15T21:52:46.168Z,46.80
2023-03-15T21:55:15.679Z,46.80
2023-03-15T21:57:45.605Z,46.80
2023-03-15T22:00:18.631Z,46.90
2023-03-15T22:02:48.024Z,46.90
2023-03-15T22:05:18.254Z,47.00
2023-03-15T22:07:46.872Z,46.80
2023-03-15T22:10:16.106Z,46.90
2023-03-15T22:12:44.909Z,46.80
2023-03-15T22:15:15.761Z,46.80
2023-03-15T22:17:46.054Z,46.80
2023-03-15T22:20:16.988Z,46.80
2023-03-15T22:22:49.950Z,46.80
2023-03-15T22:25:19.046Z,46.60
2023-03-15T22:27:47.762Z,46.60
2023-03-15T22:30:17.862Z,46.70
2023-03-15T22:32:46.995Z,46.70
2023-03-15T22:35:18.088Z,46.70
2023-03-15T22:37:49.385Z,46.70
2023-03-15T22:40:18.140Z,46.60
2023-03-15T22:42:49.668Z,46.70
2023-03-15T22:45:18.792Z,46.70
2023-03-15T22:47:47.636Z,46.80
2023-03-15T22:50:16.850Z,46.80
2023-03-15T22:52:46.857Z,46.80
2023-03-15T22:55:15.953Z,46.90
2023-03-15T22:57:44.540Z,46.80
2023-03-15T23:00:16.584Z,46.70
2023-03-15T23:02:45.966Z,46.50
2023-03-15T23:05:15.583Z,46.50
2023-03-15T23:07:44.219Z,46.60
2023-03-15T23:10:15.212Z,46.50
2023-03-15T23:12:44.202Z,46.30
2023-03-15T23:15:14.938Z,46.40
2023-03-15T23:17:46.565Z,46.40
2023-03-15T23:20:16.538Z,46.40
2023-03-15T23:22:45.611Z,46.50
2023-03-15T23:25:19.611Z,46.50
2023-03-15T23:27:49.134Z,46.40
2023-03-15T23:30:18.535Z,46.60
2023-03-15T23:32:47.252Z,46.50
2023-03-15T23:35:16.202Z,46.80
2023-03-15T23:37:44.824Z,46.60
2023-03-15T23:40:15.863Z,46.60
2023-03-15T23:42:45.197Z,46.50
2023-03-15T23:45:16.363Z,46.50
2023-03-15T23:47:45.962Z,46.40
2023-03-15T23:50:14.857Z,46.40
2023-03-15T23:52:43.448Z,46.40
2023-03-15T23:55:12.582Z,46.40
2023-03-15T23:57:43.348Z,46.30
